Time;durP1;ratioP1;P1;durP2;ratioP2;P2;SDS_P1;SDS_P2;PMS_P1;PMS_P2;Temp;Humidity;BMP_temperature;BMP_pressure;BME280_temperature;BME280_humidity;BME280_pressure;Samples;Min_cycle;Max_cycle;Signal;HPM_P1;HPM_P2
2021/12/30 00:00:44;;;;;;;45.43;22.13;;;;;;;5.45;100.00;100665.91;5051787;28;20658;-76
2021/12/30 00:03:10;;;;;;;58.30;27.07;;;;;;;5.42;100.00;100671.75;5050256;28;20651;-76
2021/12/30 00:05:36;;;;;;;65.60;30.90;;;;;;;5.35;100.00;100669.78;5052010;28;20182;-76
2021/12/30 00:08:02;;;;;;;45.87;22.83;;;;;;;5.41;100.00;100666.59;5051489;28;20217;-77
2021/12/30 00:10:28;;;;;;;37.43;19.13;;;;;;;5.42;100.00;100671.75;5033452;28;20563;-76
2021/12/30 00:12:54;;;;;;;40.57;19.70;;;;;;;5.44;100.00;100672.66;5050215;28;20197;-76
2021/12/30 00:15:20;;;;;;;36.47;17.80;;;;;;;5.41;100.00;100664.94;5067167;28;20243;-76
2021/12/30 00:17:45;;;;;;;32.07;18.27;;;;;;;5.41;100.00;100664.94;5049691;28;20185;-76
2021/12/30 00:20:11;;;;;;;40.97;17.83;;;;;;;5.41;100.00;100664.06;5067138;28;20190;-76
2021/12/30 00:22:37;;;;;;;34.23;17.40;;;;;;;5.45;99.92;100676.94;5066856;28;20205;-76
2021/12/30 00:25:05;;;;;;;33.47;17.47;;;;;;;5.45;100.00;100683.69;5051315;28;20566;-76
2021/12/30 00:27:30;;;;;;;34.93;18.00;;;;;;;5.46;100.00;100680.34;5050884;28;20264;-76
2021/12/30 00:29:55;;;;;;;81.07;19.43;;;;;;;5.45;99.98;100682.03;5066407;28;20272;-76
2021/12/30 00:32:21;;;;;;;29.70;14.93;;;;;;;5.45;100.00;100681.16;5051296;28;20288;-76
2021/12/30 00:34:47;;;;;;;28.70;16.33;;;;;;;5.49;100.00;100691.50;5051095;28;22399;-76
2021/12/30 00:37:12;;;;;;;34.37;16.90;;;;;;;5.52;99.99;100700.88;5051217;28;20197;-76
2021/12/30 00:39:37;;;;;;;33.33;16.30;;;;;;;5.51;99.75;100712.72;5049672;28;20201;-76
2021/12/30 00:42:03;;;;;;;26.90;15.27;;;;;;;5.48;99.67;100712.59;5050865;28;20221;-76
2021/12/30 00:44:28;;;;;;;22.73;14.47;;;;;;;5.48;100.00;100704.13;5050792;28;20194;-76
2021/12/30 00:46:54;;;;;;;22.90;14.37;;;;;;;5.55;100.00;100709.47;5050537;28;20209;-76
2021/12/30 00:49:19;;;;;;;23.87;14.20;;;;;;;5.59;100.00;100706.25;5050940;28;20186;-76
2021/12/30 00:51:44;;;;;;;30.27;17.03;;;;;;;5.79;100.00;100706.94;5065910;28;20281;-76
2021/12/30 00:54:10;;;;;;;33.53;17.63;;;;;;;5.93;100.00;100709.22;5050540;28;20276;-76
2021/12/30 00:56:35;;;;;;;30.10;16.73;;;;;;;5.94;100.00;100708.38;5050601;28;20174;-76
2021/12/30 00:59:01;;;;;;;30.70;16.90;;;;;;;5.97;100.00;100700.88;5050350;28;20182;-76
2021/12/30 01:01:26;;;;;;;33.13;18.03;;;;;;;6.06;100.00;100696.13;5050040;28;20229;-76
2021/12/30 01:03:52;;;;;;;35.83;19.47;;;;;;;6.21;100.00;100703.41;5050024;28;20557;-76
2021/12/30 01:06:18;;;;;;;37.33;19.80;;;;;;;6.25;100.00;100701.03;5050283;28;20573;-76
2021/12/30 01:08:44;;;;;;;45.70;22.50;;;;;;;6.40;100.00;100703.22;5050415;28;20218;-76
2021/12/30 01:11:11;;;;;;;54.23;24.47;;;;;;;6.51;100.00;100714.59;5049398;28;20288;-76
2021/12/30 01:13:42;;;;;;;45.87;22.77;;;;;;;6.46;100.00;100713.59;5050546;28;20213;-76
2021/12/30 01:16:18;;;;;;;62.17;27.80;;;;;;;6.83;100.00;100719.94;5049017;28;20181;-76
2021/12/30 01:21:23;;;;;;;78.57;29.77;;;;;;;6.83;100.00;100725.03;5050167;28;20205;-76
2021/12/30 01:23:48;;;;;;;75.60;30.20;;;;;;;6.85;100.00;100732.69;5048717;28;20182;-76
2021/12/30 01:26:13;;;;;;;83.20;31.90;;;;;;;7.03;100.00;100748.53;5048961;28;20228;-76
2021/12/30 01:28:40;;;;;;;84.10;32.77;;;;;;;6.99;100.00;100739.97;5049759;28;20189;-76
2021/12/30 01:31:06;;;;;;;92.03;34.33;;;;;;;7.20;100.00;100734.66;5049660;28;20264;-76
2021/12/30 01:33:32;;;;;;;96.70;34.63;;;;;;;7.15;100.00;100744.72;5049901;28;20193;-76
2021/12/30 01:35:57;;;;;;;103.03;35.53;;;;;;;7.21;100.00;100762.72;5050419;28;20190;-77
2021/12/30 01:38:23;;;;;;;105.33;36.90;;;;;;;7.28;100.00;100767.19;5050294;28;20196;-77
2021/12/30 01:40:52;;;;;;;109.47;37.17;;;;;;;7.46;100.00;100780.47;5050385;28;20220;-76
2021/12/30 01:43:18;;;;;;;113.17;37.87;;;;;;;7.42;100.00;100778.66;5050095;28;20351;-77
2021/12/30 01:45:45;;;;;;;111.30;39.53;;;;;;;7.44;100.00;100788.91;5049445;28;20273;-77
2021/12/30 01:48:10;;;;;;;104.63;37.50;;;;;;;7.42;100.00;100786.28;5049555;28;20209;-77
2021/12/30 01:50:36;;;;;;;101.60;37.00;;;;;;;7.48;100.00;100783.09;5049892;28;20188;-76
2021/12/30 01:53:03;;;;;;;110.23;37.53;;;;;;;7.52;100.00;100788.34;5049859;28;20269;-76
2021/12/30 01:55:31;;;;;;;113.83;37.87;;;;;;;7.48;100.00;100783.97;5049909;28;20278;-77
2021/12/30 01:57:56;;;;;;;113.23;41.07;;;;;;;7.47;100.00;100786.44;5064996;28;20182;-77
2021/12/30 02:00:24;;;;;;;111.77;41.13;;;;;;;7.58;100.00;100796.16;5048248;28;20239;-77
2021/12/30 02:02:50;;;;;;;104.67;38.57;;;;;;;7.67;100.00;100793.88;5048688;28;20208;-76
2021/12/30 02:05:16;;;;;;;109.03;41.17;;;;;;;7.67;100.00;100788.78;5049888;28;20541;-76
2021/12/30 02:07:42;;;;;;;112.77;38.53;;;;;;;7.67;100.00;100791.34;5048253;28;20702;-77
2021/12/30 02:10:08;;;;;;;115.53;40.00;;;;;;;7.65;100.00;100805.69;5048154;28;20200;-76
2021/12/30 02:12:36;;;;;;;116.23;41.53;;;;;;;7.68;100.00;100794.72;5049479;28;20293;-77
2021/12/30 02:15:06;;;;;;;120.17;40.23;;;;;;;7.64;100.00;100788.69;5049739;28;20647;-76
2021/12/30 02:17:31;;;;;;;108.43;38.93;;;;;;;7.66;100.00;100793.81;5049490;28;20182;-76
2021/12/30 02:20:05;;;;;;;109.10;38.97;;;;;;;7.65;100.00;100803.16;5048158;28;20857;-76
2021/12/30 02:22:30;;;;;;;93.53;38.07;;;;;;;7.67;100.00;100811.72;5048773;28;20213;-76
2021/12/30 02:24:58;;;;;;;103.20;39.43;;;;;;;7.65;100.00;100820.13;5065188;28;20196;-76
2021/12/30 02:27:23;;;;;;;92.27;37.70;;;;;;;7.67;100.00;100831.22;5048027;28;20217;-76
2021/12/30 02:29:49;;;;;;;100.60;36.93;;;;;;;7.69;100.00;100843.19;5049287;28;20192;-76
2021/12/30 02:32:15;;;;;;;99.70;35.90;;;;;;;7.70;100.00;100856.81;5046120;28;20219;-76
2021/12/30 02:34:40;;;;;;;99.47;38.57;;;;;;;7.71;100.00;100839.03;5049329;28;20197;-77
2021/12/30 02:37:06;;;;;;;87.83;34.37;;;;;;;7.73;100.00;100845.03;5049294;28;20189;-76
2021/12/30 02:39:33;;;;;;;82.43;35.80;;;;;;;7.74;100.00;100846.75;5064481;28;20190;-76
2021/12/30 02:41:59;;;;;;;82.90;35.30;;;;;;;7.78;100.00;100848.56;5048994;28;20262;-76
2021/12/30 02:44:26;;;;;;;87.37;34.83;;;;;;;7.90;100.00;100840.44;5047599;28;20196;-76
2021/12/30 02:46:52;;;;;;;77.43;32.77;;;;;;;7.86;100.00;100838.59;5048896;28;20308;-76
2021/12/30 02:49:18;;;;;;;75.30;32.03;;;;;;;7.87;100.00;100840.34;5049038;28;20272;-77
2021/12/30 02:51:44;;;;;;;82.93;32.53;;;;;;;7.89;100.00;100851.44;5047488;28;20214;-76
2021/12/30 02:54:09;;;;;;;75.30;31.60;;;;;;;7.92;100.00;100844.75;5047743;28;20198;-76
2021/12/30 02:56:35;;;;;;;72.83;30.90;;;;;;;7.94;100.00;100865.19;5048958;28;20285;-76
2021/12/30 02:59:01;;;;;;;60.87;27.50;;;;;;;7.99;100.00;100882.38;5048402;28;20190;-76
2021/12/30 03:01:29;;;;;;;67.87;27.33;;;;;;;8.03;100.00;100878.22;5048326;28;20216;-77
2021/12/30 03:03:56;;;;;;;60.60;25.63;;;;;;;7.98;100.00;100884.88;5048987;28;20196;-76
2021/12/30 03:06:22;;;;;;;63.90;25.73;;;;;;;7.95;100.00;100889.84;5048551;28;20217;-76
2021/12/30 03:08:49;;;;;;;58.53;24.73;;;;;;;7.95;100.00;100892.41;5047592;28;20216;-76
2021/12/30 03:11:16;;;;;;;53.23;25.43;;;;;;;7.93;100.00;100900.00;5048838;28;20228;-76
2021/12/30 03:13:44;;;;;;;49.70;22.57;;;;;;;7.90;100.00;100901.59;5048464;28;20201;-76
2021/12/30 03:16:14;;;;;;;55.77;22.53;;;;;;;7.90;100.00;100910.13;5047535;28;20579;-76
2021/12/30 03:18:42;;;;;;;49.87;22.27;;;;;;;7.94;100.00;100924.72;5047220;28;20186;-76
2021/12/30 03:21:09;;;;;;;48.50;20.00;;;;;;;7.93;100.00;100930.59;5047302;28;20205;-76
2021/12/30 03:23:35;;;;;;;49.13;20.37;;;;;;;7.93;100.00;100934.84;5048830;28;20193;-76
2021/12/30 03:26:03;;;;;;;46.10;19.70;;;;;;;7.98;100.00;100930.75;5047409;28;20968;-76
2021/12/30 03:28:29;;;;;;;50.60;21.00;;;;;;;7.96;100.00;100934.94;5048283;28;20194;-76
2021/12/30 03:30:58;;;;;;;45.17;18.10;;;;;;;7.97;100.00;100940.06;5047052;28;20209;-77
2021/12/30 03:33:25;;;;;;;42.67;17.50;;;;;;;7.94;100.00;100942.56;5048959;28;20186;-76
2021/12/30 03:35:50;;;;;;;41.13;17.00;;;;;;;7.94;100.00;100932.34;5052426;28;20296;-76
2021/12/30 03:38:16;;;;;;;39.53;17.13;;;;;;;7.98;100.00;100929.09;5052646;28;20258;-77
2021/12/30 03:40:41;;;;;;;38.70;14.97;;;;;;;8.06;100.00;100932.72;5052542;28;20229;-77
2021/12/30 03:43:06;;;;;;;45.00;15.47;;;;;;;8.07;100.00;100931.88;5052301;28;20196;-77
2021/12/30 03:45:32;;;;;;;41.73;13.70;;;;;;;8.07;100.00;100918.28;5067654;28;20223;-76
2021/12/30 03:47:57;;;;;;;38.83;13.17;;;;;;;8.13;100.00;100926.13;5050190;28;20229;-77
2021/12/30 03:50:26;;;;;;;35.97;14.30;;;;;;;8.11;100.00;100933.72;5052213;28;20182;-76
2021/12/30 03:52:55;;;;;;;36.40;13.50;;;;;;;8.10;100.00;100942.19;5052022;28;20197;-77
2021/12/30 03:55:21;;;;;;;41.37;13.80;;;;;;;8.17;100.00;100933.03;5052014;28;20269;-76
2021/12/30 03:57:48;;;;;;;44.20;13.40;;;;;;;8.15;100.00;100922.78;5052022;28;20201;-76
2021/12/30 04:00:14;;;;;;;36.37;13.80;;;;;;;8.11;100.00;100936.28;5051023;28;20190;-76
2021/12/30 04:02:40;;;;;;;38.43;13.37;;;;;;;8.13;100.00;100937.19;5051615;28;20220;-76
2021/12/30 04:05:07;;;;;;;37.63;12.57;;;;;;;8.10;100.00;100941.31;5051936;28;20182;-76
2021/12/30 04:07:33;;;;;;;30.37;13.20;;;;;;;8.05;100.00;100938.63;5051714;28;20213;-76
2021/12/30 04:09:58;;;;;;;38.33;14.23;;;;;;;7.99;100.00;100953.75;5051693;28;20662;-77
2021/12/30 04:12:23;;;;;;;41.80;13.87;;;;;;;7.98;99.95;100961.34;5051449;28;20198;-76
2021/12/30 04:14:49;;;;;;;33.07;12.77;;;;;;;7.96;100.00;100966.41;5051539;28;20826;-76
2021/12/30 04:17:14;;;;;;;35.10;12.57;;;;;;;7.93;100.00;100953.53;5051367;28;20240;-77
2021/12/30 04:19:40;;;;;;;34.93;13.10;;;;;;;7.92;100.00;100958.63;5049940;28;20221;-77
2021/12/30 04:22:05;;;;;;;38.77;12.80;;;;;;;7.91;100.00;100972.16;5051483;28;20312;-77
2021/12/30 04:24:30;;;;;;;41.13;13.03;;;;;;;7.93;100.00;100968.84;5050466;28;20300;-77
2021/12/30 04:26:56;;;;;;;34.40;12.90;;;;;;;7.85;100.00;100961.78;5050169;28;20588;-76
2021/12/30 04:29:21;;;;;;;31.23;13.00;;;;;;;7.83;100.00;100968.53;5050586;28;20219;-76
2021/12/30 04:31:47;;;;;;;36.43;12.97;;;;;;;7.81;100.00;100962.50;5049858;28;20210;-76
2021/12/30 04:34:14;;;;;;;36.57;13.47;;;;;;;7.76;100.00;100954.72;5050000;28;20272;-76
2021/12/30 04:36:40;;;;;;;31.40;13.07;;;;;;;7.70;100.00;100951.09;5050210;28;20194;-76
2021/12/30 04:39:07;;;;;;;32.30;12.17;;;;;;;7.68;100.00;100942.53;5033934;28;20215;-76
2021/12/30 04:41:32;;;;;;;42.60;13.33;;;;;;;7.65;99.71;100943.28;5051322;28;20206;-77
2021/12/30 04:43:58;;;;;;;40.50;13.23;;;;;;;7.62;100.00;100939.78;5050971;28;20197;-76
2021/12/30 04:46:23;;;;;;;37.60;13.70;;;;;;;7.60;100.00;100939.72;5050354;28;20586;-77
2021/12/30 04:48:49;;;;;;;34.90;14.37;;;;;;;7.58;100.00;100943.91;5050850;28;20235;-76
2021/12/30 04:51:16;;;;;;;43.17;14.77;;;;;;;7.62;100.00;100938.13;5049677;28;20296;-76
2021/12/30 04:53:41;;;;;;;38.63;15.57;;;;;;;7.62;100.00;100938.13;5051469;28;20190;-76
2021/12/30 04:56:07;;;;;;;41.30;16.53;;;;;;;7.57;100.00;100934.56;5051047;28;20286;-78
2021/12/30 04:58:32;;;;;;;42.97;16.33;;;;;;;7.55;100.00;100954.00;5050439;28;20201;-76
2021/12/30 05:00:57;;;;;;;50.27;17.27;;;;;;;7.56;100.00;100949.78;5065808;28;20267;-76
2021/12/30 05:03:23;;;;;;;47.03;17.70;;;;;;;7.51;100.00;100954.72;5050909;28;20200;-76
2021/12/30 05:05:51;;;;;;;53.40;19.47;;;;;;;7.54;100.00;100947.19;5049191;28;20225;-76
2021/12/30 05:08:19;;;;;;;49.53;20.20;;;;;;;7.47;100.00;100959.66;5065442;28;20222;-76
2021/12/30 05:10:46;;;;;;;48.80;17.80;;;;;;;7.42;100.00;100967.13;5050739;28;20209;-76
2021/12/30 05:13:12;;;;;;;49.63;20.30;;;;;;;7.43;100.00;100965.47;5064958;28;20209;-76
2021/12/30 05:15:39;;;;;;;46.13;19.70;;;;;;;7.45;100.00;100958.72;5048787;28;20193;-76
2021/12/30 05:18:07;;;;;;;46.00;21.10;;;;;;;7.47;100.00;100959.66;5048568;28;20201;-76
2021/12/30 05:20:32;;;;;;;53.63;21.80;;;;;;;7.52;100.00;100961.56;5050056;28;20193;-76
2021/12/30 05:22:58;;;;;;;55.67;22.90;;;;;;;7.61;100.00;100951.66;5049372;28;20599;-75
2021/12/30 05:25:25;;;;;;;46.33;22.23;;;;;;;7.66;100.00;100952.69;5051307;28;20189;-76
2021/12/30 05:27:53;;;;;;;54.83;23.00;;;;;;;7.68;100.00;100948.50;5060713;28;20221;-76
2021/12/30 05:30:21;;;;;;;54.17;22.97;;;;;;;7.71;100.00;100951.16;5050269;28;20182;-76
2021/12/30 05:32:47;;;;;;;63.70;23.90;;;;;;;7.70;100.00;100954.50;5060924;28;20685;-76
2021/12/30 05:35:13;;;;;;;56.77;25.83;;;;;;;7.71;100.00;100960.47;5068786;28;20241;-77
2021/12/30 05:37:39;;;;;;;63.73;25.30;;;;;;;7.84;100.00;100968.53;5070117;28;20189;-76
2021/12/30 05:40:08;;;;;;;66.93;25.40;;;;;;;7.85;100.00;100988.16;5068946;28;20192;-76
2021/12/30 05:42:33;;;;;;;58.20;24.67;;;;;;;7.86;100.00;100994.97;5050127;28;20206;-76
2021/12/30 05:44:58;;;;;;;65.43;25.07;;;;;;;7.86;100.00;100989.88;5032128;28;20192;-76
2021/12/30 05:47:24;;;;;;;60.60;26.63;;;;;;;7.98;100.00;100990.28;5048714;28;20205;-76
2021/12/30 05:49:49;;;;;;;61.60;26.60;;;;;;;7.97;100.00;100980.88;5049823;28;20182;-76
2021/12/30 05:52:15;;;;;;;88.43;28.80;;;;;;;7.98;100.00;100974.09;5050008;28;20209;-76
2021/12/30 05:54:42;;;;;;;68.63;28.10;;;;;;;8.07;100.00;100974.38;5049975;28;20808;-76
2021/12/30 05:57:07;;;;;;;70.93;28.73;;;;;;;8.15;100.00;100978.91;5049422;28;20224;-76
2021/12/30 05:59:32;;;;;;;69.17;28.43;;;;;;;8.14;100.00;100991.59;5049747;28;20182;-76
2021/12/30 06:01:58;;;;;;;78.73;29.17;;;;;;;8.17;100.00;100989.16;5049527;28;20248;-76
2021/12/30 06:04:24;;;;;;;83.77;30.60;;;;;;;8.16;100.00;100998.47;5048532;28;20204;-76
2021/12/30 06:06:50;;;;;;;81.50;29.77;;;;;;;8.22;100.00;101002.94;5050028;28;20697;-76
2021/12/30 06:09:15;;;;;;;82.10;28.23;;;;;;;8.21;100.00;101011.41;5049673;28;20239;-76
2021/12/30 06:11:40;;;;;;;73.93;26.70;;;;;;;8.21;100.00;101014.81;5049825;28;20213;-76
2021/12/30 06:14:06;;;;;;;68.90;26.43;;;;;;;8.24;100.00;101024.28;5048375;28;20247;-76
2021/12/30 06:16:33;;;;;;;69.50;26.20;;;;;;;8.21;100.00;101022.47;5048083;28;20193;-76
2021/12/30 06:18:59;;;;;;;76.40;27.37;;;;;;;8.29;100.00;101025.28;5049470;28;20196;-76
2021/12/30 06:21:25;;;;;;;76.57;26.40;;;;;;;8.25;100.00;101029.41;5064950;28;20267;-76
2021/12/30 06:23:50;;;;;;;68.57;26.13;;;;;;;8.28;100.00;101041.38;5049621;28;20173;-76
2021/12/30 06:26:15;;;;;;;66.87;25.47;;;;;;;8.38;100.00;101026.41;5049473;28;20711;-76
2021/12/30 06:28:41;;;;;;;63.17;23.77;;;;;;;8.35;100.00;101005.06;5049255;28;20194;-76
2021/12/30 06:31:06;;;;;;;68.03;24.23;;;;;;;8.36;100.00;101004.22;5049231;28;20270;-76
2021/12/30 06:33:32;;;;;;;69.67;23.77;;;;;;;8.44;100.00;101010.44;5049462;28;20182;-76
2021/12/30 06:35:57;;;;;;;67.73;26.37;;;;;;;8.40;100.00;101003.50;5049305;28;20197;-76
2021/12/30 06:38:23;;;;;;;67.97;22.40;;;;;;;8.42;100.00;101006.97;5064571;28;20292;-76
2021/12/30 06:40:48;;;;;;;71.40;24.37;;;;;;;8.43;100.00;100996.81;5049311;28;20280;-76
2021/12/30 06:43:13;;;;;;;71.43;24.13;;;;;;;8.50;100.00;100993.63;5049308;28;20243;-76
2021/12/30 06:45:39;;;;;;;63.67;24.10;;;;;;;8.46;99.86;101006.25;5049227;28;20178;-76
2021/12/30 06:48:06;;;;;;;57.43;24.07;;;;;;;8.47;99.83;101018.19;5048128;28;20217;-76
2021/12/30 06:50:33;;;;;;;63.97;24.23;;;;;;;8.46;100.00;101019.88;5049725;28;20198;-76
2021/12/30 06:52:59;;;;;;;64.33;25.47;;;;;;;8.48;100.00;101012.28;5049479;28;20715;-76
2021/12/30 06:55:24;;;;;;;59.50;23.33;;;;;;;8.48;100.00;101028.44;5047968;28;20553;-76
2021/12/30 06:57:50;;;;;;;61.57;22.97;;;;;;;8.54;100.00;101041.41;5047815;28;20181;-76
2021/12/30 07:00:15;;;;;;;70.80;24.03;;;;;;;8.52;99.41;101060.03;5064488;28;20238;-76
2021/12/30 07:02:45;;;;;;;68.07;24.27;;;;;;;8.49;100.00;101065.03;5047894;28;20241;-76
2021/12/30 07:05:11;;;;;;;69.37;23.70;;;;;;;8.53;99.86;101056.66;5048183;28;20182;-77
2021/12/30 07:07:37;;;;;;;69.63;24.17;;;;;;;8.54;99.78;101048.19;5049889;28;20744;-76
2021/12/30 07:10:05;;;;;;;56.97;23.17;;;;;;;8.56;99.96;101031.22;5052024;28;20190;-77
2021/12/30 07:12:30;;;;;;;61.97;23.67;;;;;;;8.54;99.48;101033.75;5051709;28;20210;-76
2021/12/30 07:14:57;;;;;;;62.23;22.87;;;;;;;8.54;100.00;101036.28;5051759;28;20196;-76
2021/12/30 07:17:23;;;;;;;68.50;24.27;;;;;;;8.61;99.20;101022.03;5052959;28;20193;-76
2021/12/30 07:19:48;;;;;;;61.87;23.20;;;;;;;8.59;98.21;101024.53;5053000;28;21052;-76
2021/12/30 07:22:14;;;;;;;66.07;23.70;;;;;;;8.56;98.61;101026.97;5053141;28;20240;-76
2021/12/30 07:24:39;;;;;;;60.93;23.57;;;;;;;8.56;99.09;101037.19;5035140;28;20185;-76
2021/12/30 07:27:04;;;;;;;60.67;22.53;;;;;;;8.53;98.93;101044.75;5051472;28;20616;-76
2021/12/30 07:29:30;;;;;;;62.97;23.10;;;;;;;8.56;98.87;101039.75;5052303;28;20724;-76
2021/12/30 07:31:55;;;;;;;64.57;24.43;;;;;;;8.54;98.95;101054.16;5052606;28;20237;-76
2021/12/30 07:34:20;;;;;;;61.90;23.63;;;;;;;8.55;98.91;101052.44;5052535;28;20213;-76
2021/12/30 07:36:45;;;;;;;57.93;23.43;;;;;;;8.57;98.76;101050.84;5052516;28;20198;-76
2021/12/30 07:39:11;;;;;;;60.00;23.43;;;;;;;8.57;98.81;101067.00;5050863;28;20229;-76
2021/12/30 07:41:37;;;;;;;60.07;23.50;;;;;;;8.56;98.23;101064.38;5052472;28;20220;-76
2021/12/30 07:44:02;;;;;;;73.47;24.40;;;;;;;8.56;98.63;101082.25;5052401;28;20193;-76
2021/12/30 07:46:27;;;;;;;65.37;24.37;;;;;;;8.55;99.04;101075.41;5051562;28;20205;-76
2021/12/30 07:48:53;;;;;;;63.73;24.63;;;;;;;8.53;98.44;101054.94;5051669;28;20662;-76
2021/12/30 07:51:18;;;;;;;65.70;22.77;;;;;;;8.56;98.35;101054.19;5051041;28;20220;-76
2021/12/30 07:53:43;;;;;;;59.20;24.03;;;;;;;8.55;98.83;101060.09;5052252;28;20194;-76
2021/12/30 07:56:09;;;;;;;58.77;22.23;;;;;;;8.56;98.23;101059.28;5067664;28;20193;-76
2021/12/30 07:58:35;;;;;;;56.83;22.77;;;;;;;8.53;98.00;101077.06;5061092;28;20718;-76
2021/12/30 08:01:00;;;;;;;60.93;22.00;;;;;;;8.52;98.26;101067.69;5071677;28;20216;-76
2021/12/30 08:03:26;;;;;;;59.43;21.63;;;;;;;8.59;98.55;101060.25;5072361;28;20264;-76
2021/12/30 08:05:51;;;;;;;57.00;20.93;;;;;;;8.57;98.19;101055.94;5063895;28;20200;-77
2021/12/30 08:08:17;;;;;;;56.63;22.03;;;;;;;8.58;98.36;101063.66;5050588;28;20224;-77
2021/12/30 08:10:42;;;;;;;65.27;21.90;;;;;;;8.58;97.69;101072.97;5052081;28;20185;-77
2021/12/30 08:13:08;;;;;;;57.73;21.47;;;;;;;8.58;98.05;101066.19;5050465;28;20190;-77
2021/12/30 08:15:33;;;;;;;60.93;21.10;;;;;;;8.58;98.52;101062.75;5050589;28;20277;-76
2021/12/30 08:17:59;;;;;;;57.40;20.47;;;;;;;8.58;98.30;101063.66;5050275;28;20279;-76
2021/12/30 08:20:24;;;;;;;48.80;19.20;;;;;;;8.58;98.36;101063.66;5051102;28;20658;-77
2021/12/30 08:22:51;;;;;;;52.10;20.63;;;;;;;8.62;98.95;101064.59;5050850;28;20185;-76
2021/12/30 08:25:17;;;;;;;61.63;20.70;;;;;;;8.64;98.57;101065.50;5051729;28;20836;-76
2021/12/30 08:27:44;;;;;;;48.57;19.10;;;;;;;8.60;97.79;101058.56;5050451;28;20214;-76
2021/12/30 08:30:13;;;;;;;53.77;18.47;;;;;;;8.60;98.15;101056.00;5050116;28;20186;-75
2021/12/30 08:32:40;;;;;;;55.73;19.70;;;;;;;8.66;97.95;101054.50;5050493;28;20352;-75
2021/12/30 08:35:07;;;;;;;55.87;21.43;;;;;;;8.68;98.66;101058.00;5050252;28;20248;-76
2021/12/30 08:37:34;;;;;;;53.70;20.07;;;;;;;8.71;97.93;101067.44;5051299;28;20173;-75
2021/12/30 08:40:01;;;;;;;44.77;17.90;;;;;;;8.67;98.54;101069.00;5051349;28;20192;-75
2021/12/30 08:42:28;;;;;;;51.60;19.50;;;;;;;8.70;98.03;101078.47;5051234;28;20216;-75
2021/12/30 08:44:56;;;;;;;50.73;19.13;;;;;;;8.74;98.61;101087.91;5050315;28;20189;-76
2021/12/30 08:47:23;;;;;;;62.17;19.83;;;;;;;8.74;98.74;101095.59;5049836;28;20210;-76
2021/12/30 08:49:48;;;;;;;55.60;19.07;;;;;;;8.81;98.01;101090.69;5051156;28;20192;-75
2021/12/30 08:52:15;;;;;;;53.20;19.03;;;;;;;8.82;98.02;101073.72;5051096;28;20198;-75
2021/12/30 08:54:41;;;;;;;56.60;20.53;;;;;;;8.85;98.81;101081.47;5050244;28;20280;-78
2021/12/30 08:57:07;;;;;;;56.13;19.07;;;;;;;8.89;98.50;101068.81;5052307;28;20285;-77
2021/12/30 08:59:35;;;;;;;57.13;19.10;;;;;;;8.95;98.61;101075.81;5050795;28;20680;-77
2021/12/30 09:02:00;;;;;;;51.30;18.37;;;;;;;9.00;97.67;101077.69;5050839;28;20197;-77
2021/12/30 09:04:26;;;;;;;59.10;18.33;;;;;;;9.06;98.37;101079.53;5051517;28;20193;-77
2021/12/30 09:06:53;;;;;;;49.00;17.33;;;;;;;9.06;97.75;101084.63;5066772;28;20316;-77
2021/12/30 09:09:18;;;;;;;53.23;18.33;;;;;;;9.10;97.53;101078.81;5033586;28;20249;-76
2021/12/30 09:11:43;;;;;;;49.03;18.27;;;;;;;9.11;98.25;101077.97;5050414;28;20221;-75
2021/12/30 09:14:09;;;;;;;58.20;18.87;;;;;;;9.11;98.31;101076.28;5050440;28;20643;-76
2021/12/30 09:16:34;;;;;;;61.20;19.20;;;;;;;9.14;98.54;101067.84;5052130;28;20651;-77
2021/12/30 09:19:00;;;;;;;53.93;19.30;;;;;;;9.17;98.40;101073.91;5050058;28;20196;-76
2021/12/30 09:21:25;;;;;;;60.40;20.77;;;;;;;9.22;98.94;101074.91;5048469;28;20218;-76
2021/12/30 09:23:50;;;;;;;60.67;21.13;;;;;;;9.28;99.41;101074.22;5048677;28;20646;-76
2021/12/30 09:26:16;;;;;;;66.77;22.40;;;;;;;9.30;99.19;101060.66;5050216;28;20197;-77
2021/12/30 09:28:41;;;;;;;66.70;22.37;;;;;;;9.32;99.51;101070.94;5051744;28;20289;-78
2021/12/30 09:31:06;;;;;;;67.47;22.50;;;;;;;9.33;99.51;101070.09;5049967;28;20237;-76
2021/12/30 09:33:33;;;;;;;76.57;25.43;;;;;;;9.36;99.41;101065.09;5050549;28;20228;-74
2021/12/30 09:36:01;;;;;;;75.53;24.03;;;;;;;9.36;99.52;101063.38;5050146;28;20647;-73
2021/12/30 09:38:27;;;;;;;69.10;24.33;;;;;;;9.39;100.00;101058.34;5048707;28;20197;-73
2021/12/30 09:40:52;;;;;;;84.33;24.77;;;;;;;9.42;99.94;101058.44;5047137;28;20232;-75
2021/12/30 09:43:18;;;;;;;75.47;25.63;;;;;;;9.38;100.00;101059.19;5049502;28;20292;-74
2021/12/30 09:45:44;;;;;;;73.67;24.47;;;;;;;9.40;100.00;101054.13;5050090;28;20698;-73
2021/12/30 09:48:12;;;;;;;76.40;25.37;;;;;;;9.39;100.00;101057.47;5047057;28;20229;-73
2021/12/30 09:50:50;;;;;;;82.70;25.17;;;;;;;9.41;99.90;101051.63;5048830;28;20219;-73
2021/12/30 09:53:21;;;;;;;95.17;27.33;;;;;;;9.42;100.00;101045.69;5049426;28;20172;-74
2021/12/30 09:55:47;;;;;;;80.83;25.73;;;;;;;9.44;100.00;101048.28;5049177;28;20197;-73
2021/12/30 09:58:12;;;;;;;82.57;25.53;;;;;;;9.42;100.00;101048.22;5049097;28;20174;-72
2021/12/30 10:00:38;;;;;;;80.73;25.60;;;;;;;9.42;100.00;101040.56;5063967;28;20181;-74
2021/12/30 10:03:04;;;;;;;66.73;23.33;;;;;;;9.43;100.00;101038.84;5049352;28;20701;-73
2021/12/30 10:05:32;;;;;;;77.93;25.67;;;;;;;9.41;100.00;101040.53;5049014;28;20200;-74
2021/12/30 10:08:10;;;;;;;89.57;27.63;;;;;;;9.39;100.00;101043.03;5064117;28;20224;-74
2021/12/30 10:10:38;;;;;;;81.90;26.47;;;;;;;9.34;100.00;101036.94;5039825;28;20221;-74
2021/12/30 10:13:29;;;;;;;95.77;29.13;;;;;;;9.34;100.00;101036.03;5048980;28;20181;-74
2021/12/30 10:15:59;;;;;;;81.70;25.33;;;;;;;9.33;100.00;101032.66;5049017;28;20190;-73
2021/12/30 10:18:40;;;;;;;78.33;24.97;;;;;;;9.33;100.00;101034.31;5048766;28;20194;-72
2021/12/30 10:21:12;;;;;;;72.50;25.37;;;;;;;9.29;100.00;101035.06;5048965;28;20238;-74
2021/12/30 10:23:43;;;;;;;80.87;25.13;;;;;;;9.26;100.00;101042.66;5049041;28;20174;-74
2021/12/30 10:26:08;;;;;;;82.70;25.10;;;;;;;9.26;100.00;101030.72;5049008;28;20636;-74
2021/12/30 10:28:37;;;;;;;69.43;25.33;;;;;;;9.22;100.00;101031.47;5047159;28;20242;-74
2021/12/30 10:31:11;;;;;;;77.80;22.90;;;;;;;9.23;100.00;101029.78;5047407;28;20209;-73
2021/12/30 10:33:47;;;;;;;89.17;25.13;;;;;;;9.20;100.00;101033.13;5048899;28;20227;-74
2021/12/30 10:36:17;;;;;;;93.00;25.27;;;;;;;9.20;100.00;101029.69;5048139;28;20217;-75
2021/12/30 10:38:43;;;;;;;87.57;24.67;;;;;;;9.20;100.00;101022.03;5048706;28;20190;-75
2021/12/30 10:41:08;;;;;;;69.67;22.47;;;;;;;9.18;100.00;101011.78;5049948;28;20284;-72
2021/12/30 10:43:44;;;;;;;75.20;22.27;;;;;;;9.19;100.00;101010.97;5051459;28;20210;-74
2021/12/30 10:46:17;;;;;;;68.60;21.97;;;;;;;9.21;100.00;101006.75;5053013;28;20199;-74
2021/12/30 10:48:48;;;;;;;70.53;22.80;;;;;;;9.23;100.00;101000.00;5052629;28;20189;-75
2021/12/30 10:51:24;;;;;;;68.57;23.20;;;;;;;9.24;100.00;100996.63;5051545;28;20241;-75
2021/12/30 10:53:51;;;;;;;70.10;21.57;;;;;;;9.28;100.00;100995.88;5052783;28;20197;-75
2021/12/30 10:56:32;;;;;;;65.00;20.83;;;;;;;9.30;100.00;100991.66;5053155;28;20287;-76
2021/12/30 10:59:24;;;;;;;61.27;20.73;;;;;;;9.35;100.00;100997.75;5034039;28;20244;-77
2021/12/30 11:02:00;;;;;;;58.40;19.43;;;;;;;9.37;100.00;100995.25;5034631;28;20249;-77
2021/12/30 11:04:40;;;;;;;63.60;20.60;;;;;;;9.38;100.00;100999.53;5032092;28;20193;-77
2021/12/30 11:07:07;;;;;;;60.47;21.03;;;;;;;9.43;100.00;100995.41;5033587;28;20202;-78
2021/12/30 11:09:33;;;;;;;54.47;20.00;;;;;;;9.44;100.00;100984.38;5026393;28;20291;-78
2021/12/30 11:12:02;;;;;;;63.63;20.13;;;;;;;9.44;100.00;100974.16;5034737;28;20680;-78